Minerva Grace — SVBN7 — position and weather

sailwx.info

Track history (hours):
 
Tides and Currents Weather Stations Pressure Air Temp Water Temp Dewpoint Dewpoint Depression Visibility Wind Speed Wind Dir Waves Ship Positions

Minerva Grace

Last reported at 2015-Mar-04 03:23 UTC. Time now 2015-Mar-04 04:27 UTC.
Position N 57°40' E 010°39'.

Length 183 m; draft 8.2 m.

Type: Tanker. MMSI: 241193000.

Date/timePositionNaut miles runAvg speedWind from/ knotsBaromVisibWave heightAir tempDewpointWater temp
2015-Mar-04 03:23N 57°40' E 010°39'0 0.0
2015-Mar-04 02:32N 57°40' E 010°39'0 0.0
2015-Mar-04 01:32N 57°40' E 010°39'0 0.0
2015-Mar-04 00:32N 57°40' E 010°39'0 0.0
2015-Mar-03 23:32N 57°40' E 010°39'0 0.0
2015-Mar-03 22:32N 57°40' E 010°39'0 0.0
2015-Mar-03 21:23N 57°40' E 010°39'0 0.0
2015-Mar-03 20:20N 57°40' E 010°39'0 0.1
2015-Mar-03 19:33N 57°40' E 010°39'2 1.7
2015-Mar-03 18:33N 57°41' E 010°42'6 6.1
2015-Mar-03 17:33N 57°47' E 010°41'1212.0
2015-Mar-03 16:33N 57°47' E 010°18'269 8.4
2015-Mar-02 08:31N 54°21' E 005°09'9 8.8
2015-Mar-02 07:32N 54°14' E 004°60'8 8.6
2015-Mar-02 06:33N 54°07' E 004°53'10 9.0
2015-Mar-02 05:25N 53°59' E 004°42'158 9.3
2015-Mar-01 12:33N 51°43' E 002°31'1111.3
2015-Mar-01 11:33N 51°34' E 002°19'1211.7
2015-Mar-01 10:33N 51°25' E 002°07'1110.6
2015-Mar-01 09:33N 51°14' E 002°04'1212.2
2015-Mar-01 08:33N 51°08' E 001°47'1313.0
2015-Mar-01 07:33N 50°59' E 001°33'3810.8
2015-Mar-01 04:05N 50°29' E 000°56'1910.8
2015-Mar-01 02:21N 50°24' E 000°28'9610.4
2015-Feb-28 17:07N 49°59' W 001°57'  
Track history (hours):
 
Tides and Currents Weather Stations Pressure Air Temp Water Temp Dewpoint Dewpoint Depression Visibility Wind Speed Wind Dir Waves Ship Positions

Minerva Grace

Last reported at 2015-Mar-04 03:23 UTC. Time now 2015-Mar-04 04:27 UTC.
Position N 57°40' E 010°39'.

Length 183 m; draft 8.2 m.

Type: Tanker. MMSI: 241193000.

Date/timePositionNaut miles runAvg speedWind from/ knotsBaromVisibWave heightAir tempDewpointWater temp
2015-Mar-04 03:23N 57°40' E 010°39'0 0.0
2015-Mar-04 02:32N 57°40' E 010°39'0 0.0
2015-Mar-04 01:32N 57°40' E 010°39'0 0.0
2015-Mar-04 00:32N 57°40' E 010°39'0 0.0
2015-Mar-03 23:32N 57°40' E 010°39'0 0.0
2015-Mar-03 22:32N 57°40' E 010°39'0 0.0
2015-Mar-03 21:23N 57°40' E 010°39'0 0.0
2015-Mar-03 20:20N 57°40' E 010°39'0 0.1
2015-Mar-03 19:33N 57°40' E 010°39'2 1.7
2015-Mar-03 18:33N 57°41' E 010°42'6 6.1
2015-Mar-03 17:33N 57°47' E 010°41'1212.0
2015-Mar-03 16:33N 57°47' E 010°18'269 8.4
2015-Mar-02 08:31N 54°21' E 005°09'9 8.8
2015-Mar-02 07:32N 54°14' E 004°60'8 8.6
2015-Mar-02 06:33N 54°07' E 004°53'10 9.0
2015-Mar-02 05:25N 53°59' E 004°42'158 9.3
2015-Mar-01 12:33N 51°43' E 002°31'1111.3
2015-Mar-01 11:33N 51°34' E 002°19'1211.7
2015-Mar-01 10:33N 51°25' E 002°07'1110.6
2015-Mar-01 09:33N 51°14' E 002°04'1212.2
2015-Mar-01 08:33N 51°08' E 001°47'1313.0
2015-Mar-01 07:33N 50°59' E 001°33'3810.8
2015-Mar-01 04:05N 50°29' E 000°56'1910.8
2015-Mar-01 02:21N 50°24' E 000°28'9610.4
2015-Feb-28 17:07N 49°59' W 001°57'  

Dump ship's entire track history